Chevak, AK (99563)

9:33 PM AKDT on August 27, 2014 (GMT -0800)
Chevak | Change Station
CLOSE
Current Station
Airport
Location: Chevak,
Elevation: 75 ft
Nearby Weather Stations

Elev 75 ft 61.54 °N, 165.60 °W | Updated 8 minutes ago

Overcast
Overcast
54 °F
Feels Like 54 °F
N
16
Wind Variable Wind from NW

Today
High -- | Low -- °F
--% Chance of Precip.
Yesterday
High -- | Low -- °F
Precip. -- in
7:37 AM 10:20 PM
Waxing Crescent, 6% visible
Pressure 29.81 in
Visibility 10.0 miles
Clouds Scattered Clouds 1300 ft
Scattered Clouds 2400 ft
Overcast 4100 ft
Dew Point 48 °F
Humidity 82%
Rainfall 0.00 in
Snow Depth Not available.
UV 0 out of 12
Pollen Not available.
Air Quality Not available.
Flu Activity Not available.
SPECI PAVA 280525Z AUTO 31014KT 10SM SCT013 SCT024 OVC041 12/09 A2981 RMK AO2 PNO $

More Conditions Fewer Conditions

Pressure 29.81 in
Visibility 10.0 miles
Clouds Scattered Clouds 1300 ft
Scattered Clouds 2400 ft
Overcast 4100 ft
Dew Point 48 °F
Humidity 82%
Rainfall 0.00 in
Snow Depth Not available.
UV 0 out of 12
Pollen Not available.
Air Quality Not available.
Flu Activity Not available.
SPECI PAVA 280525Z AUTO 31014KT 10SM SCT013 SCT024 OVC041 12/09 A2981 RMK AO2 PNO $

More Conditions Fewer Conditions

10-Day Weather Forecast

Almanac

Astronomy

Aug. 27, 2014 Rise Set
Actual Time 7:37 AM AKDT 10:20 PM AKDT
Civil Twilight 6:48 AM AKDT 11:09 PM AKDT
Nautical Twilight 5:41 AM AKDT 12:15 AM AKDT
Astronomical Twilight 3:49 AM AKDT 1:59 AM AKDT
Moon 10:34 AM AKDT (8/27) 10:24 PM AKDT (8/27)
Length of Visible Light 16h 20m
Length of Day
14h 42m
Tomorrow will be 5m 41s shorter.
Waxing Crescent, 6% of the Moon is Illuminated
Aug 28
Waxing Crescent
Sep 2
First Quarter
Sep 8
Full
Sep 15
Last Quarter
Sep 24
New

Yesterday's Extremes

State Highs State Lows

Community

WunderPhotos

Upload Photos

1,747,909 photos uploaded!

Nearby

Snow Depth

Station Depth Elevation
Rocky Point 3 in 500 ft
Mcneil Canyon 1 in 1320 ft
Port Graham 0 in 300 ft
Susitna Valley High 1 in 375 ft
MF Bradley River 3 in 2300 ft

Earthquake Activity

City Distance Mag. Time & Date
No recent earthquake activity has been reported nearby.
Minimum magnitude displayed is 2.5.

Coastal Water Temperatures

Place Temperature
No Stations Reporting

Nearby Weather Stations